createdAt,value
2019-03-18T00:21:47.633Z,5.80
2019-03-18T00:51:51.653Z,5.80
2019-03-18T01:21:55.341Z,5.70
2019-03-18T01:51:58.938Z,5.80
2019-03-18T02:22:02.533Z,5.70
2019-03-18T02:52:06.224Z,5.40
2019-03-18T03:22:09.814Z,5.60
2019-03-18T03:52:13.425Z,5.60
2019-03-18T04:22:17.051Z,5.60
2019-03-18T04:52:20.630Z,4.60
2019-03-18T05:22:24.338Z,4.80
2019-03-18T05:52:28.005Z,4.80
2019-03-18T06:22:31.688Z,4.30
2019-03-18T06:52:35.269Z,4.10
2019-03-18T07:22:38.884Z,4.40
2019-03-18T07:52:42.476Z,5.50
2019-03-18T08:22:46.145Z,5.20
2019-03-18T08:52:49.737Z,5.50
2019-03-18T09:22:53.405Z,5.50
2019-03-18T09:52:57.105Z,6.40
2019-03-18T10:23:02.877Z,6.30
2019-03-18T10:53:06.070Z,6.40
2019-03-18T11:23:09.681Z,7.60
2019-03-18T11:53:14.666Z,7.00
2019-03-18T12:23:18.489Z,7.30
2019-03-18T12:53:22.099Z,6.70
2019-03-18T13:23:25.710Z,6.70
2019-03-18T13:53:29.377Z,7.40
2019-03-18T14:23:32.976Z,6.60
2019-03-18T14:53:36.572Z,8.90
2019-03-18T15:23:40.188Z,8.50
2019-03-18T15:53:43.909Z,7.40
2019-03-18T16:23:47.727Z,6.60
2019-03-18T16:53:51.331Z,6.20
2019-03-18T17:23:55.281Z,5.70
2019-03-18T17:53:58.953Z,4.40
2019-03-18T18:24:02.626Z,3.70
2019-03-18T18:54:06.313Z,3.40
2019-03-18T19:24:10.053Z,2.90
2019-03-18T19:54:13.667Z,3.40
2019-03-18T20:24:17.364Z,3.60
2019-03-18T20:54:21.986Z,3.70
2019-03-18T21:24:25.780Z,3.90
2019-03-18T21:54:34.331Z,4.00
2019-03-18T22:24:44.790Z,3.80
2019-03-18T22:54:42.157Z,3.50
2019-03-18T23:24:45.806Z,3.30
2019-03-18T23:54:49.489Z,3.20
